Cottonwood, AZ (86326)

3:57 PM MST on May 28, 2015 (GMT -0700)
Verde Village Unit # 6 | | Change Station
CLOSE
Current Station
Personal Weather Station
Location: Cottonwood, AZ
Elevation: 3485 ft
Nearby Weather Stations

Elev 3485 ft 34.70 °N, 112.01 °W | Updated 3 seconds ago

Clear
Clear
91.9 °F
Feels Like 88 °F
N
5.5
Wind Variable Wind from North
Gusts 10.1 mph

Today
High -- | Low -- °F
--% Chance of Precip.
Yesterday
High -- | Low -- °F
Precip. -- in
5:17 AM 7:33 PM
Waxing Gibbous, 79% visible
Pressure 30.06 in
Visibility 10.0 miles
Clouds Clear
Heat Index 88 °F
Dew Point 20 °F
Humidity 7%
Rainfall 0.00 in
Snow Depth Not available.
UV 7 out of 12
Pollen 5.60 out of 12
Air Quality Not available.
Flu Activity Local Activity
METAR KSEZ 282235Z AUTO 31006KT 10SM CLR 28/M05 A3006 RMK AO2

More Conditions Fewer Conditions

Pressure 30.06 in
Visibility 10.0 miles
Clouds Clear
Heat Index 88 °F
Dew Point 20 °F
Humidity 7%
Rainfall 0.00 in
Snow Depth Not available.
UV 7 out of 12
Pollen 5.60 out of 12
Air Quality Not available.
Flu Activity Local Activity
METAR KSEZ 282235Z AUTO 31006KT 10SM CLR 28/M05 A3006 RMK AO2

More Conditions Fewer Conditions

10-Day Weather Forecast

Almanac

Astronomy

May. 28, 2015 Rise Set
Actual Time
Civil Twilight
Nautical Twilight
Astronomical Twilight
Moon
Length of Visible Light
Length of Day
Tomorrow will be .
, % of the Moon is Illuminated

Today's Extremes

State Highs State Lows

Community

WunderPhotos

Upload Photos

1,825,083 photos uploaded!

WunderBlogs® & News

Nearby

Air Quality

  Air Quality AQ Index Pollutant
Not available.

Snow Depth

Station Depth Elevation

Earthquake Activity

City Distance Mag. Time & Date
Minimum magnitude displayed is 2.5.

Coastal Water Temperatures

Place Temperature

Stations

Nearby Weather Stations

Station Location Temp. Windchill Dew Point Humidity Wind Precip. Elev Updated Type